This is the latest recevied weather packets stored in our database for station/object EA2ESA-13. If no packets are shown the sender has not sent any weather packets the latest 10 day(s).
| Time | Temp. | Humidity | Pressure | Rain* | Wind** | Luminosity | Snow |
|---|---|---|---|---|---|---|---|
| 1778269239 | 18.33° C | 72% | 1015.3 hPa | 0 mm | 0 m/s | - | - |
| 1778268638 | 18.89° C | 72% | 1015 hPa | 0 mm | 0 m/s | - | - |
| 1778268038 | 18.89° C | 71% | 1014.9 hPa | 0 mm | 0 m/s | - | - |
| 1778267437 | 18.89° C | 70% | 1014.9 hPa | 0 mm | 0 m/s | - | - |
| 1778266837 | 18.89° C | 70% | 1014.8 hPa | 0 mm | 0 m/s | - | - |
| 1778266235 | 18.89° C | 70% | 1014.8 hPa | 0 mm | 0 m/s | - | - |
| 1778265634 | 18.89° C | 69% | 1014.9 hPa | 0 mm | 0 m/s | - | - |
| 1778265033 | 18.89° C | 69% | 1014.7 hPa | 0 mm | 0 m/s | - | - |
| 1778264432 | 18.89° C | 69% | 1014.7 hPa | 0 mm | 0 m/s | - | - |
| 1778263832 | 18.89° C | 68% | 1014.7 hPa | 0 mm | 0 m/s | - | - |
| 1778263231 | 18.89° C | 70% | 1014.7 hPa | 0 mm | 0 m/s | - | - |
| 1778262630 | 18.89° C | 69% | 1015 hPa | 0 mm | 0 m/s | - | - |
| 1778262029 | 19.44° C | 69% | 1015.1 hPa | 0 mm | 0 m/s | - | - |
| 1778261428 | 20° C | 66% | 1015.2 hPa | 0 mm | 0 m/s | - | - |
| 1778260827 | 20.56° C | 63% | 1015.5 hPa | 0 mm | 0 m/s | - | - |
| 1778260227 | 21.11° C | 60% | 1015.5 hPa | 0 mm | 0 m/s | - | - |
| 1778259626 | 22.22° C | 55% | 1015.5 hPa | 0 mm | 0 m/s | - | - |
| 1778259025 | 22.22° C | 54% | 1014.5 hPa | 0 mm | 0 m/s | - | - |
| 1778258424 | 22.22° C | 53% | 1014.1 hPa | 0 mm | 0 m/s | - | - |
| 1778257823 | 22.22° C | 54% | 1013.8 hPa | 0 mm | 0 m/s | - | - |
| 1778257222 | 22.78° C | 54% | 1013.6 hPa | 0 mm | 0 m/s | - | - |
| 1778256621 | 22.78° C | 53% | 1013.6 hPa | 0 mm | 0 m/s | - | - |
| 1778256020 | 22.78° C | 53% | 1013.7 hPa | 0 mm | 0 m/s | - | - |
| 1778255420 | 22.78° C | 54% | 1013.6 hPa | 0 mm | 0 m/s | - | - |
| 1778254819 | 22.22° C | 55% | 1013.7 hPa | 0 mm | 0 m/s | - | - |
* Rain latest hour (hover to see other rain measurements)
** Current wind speed in m/s (hover to see current wind gust speed)